Huron Township, Michigan
Current Conditions -  °F | °C
As of 11:53 AM on Tuesday 21 Oct 2014 (Local Time) from KDTW Reporting Station
Overcast Overcast  
Wind Chill: 43°   Ceiling: 2500
Heat Index: 48°   Visibility: 10mi
Dew Point: 39°   Wind: 13mph
Humidity: 71%   Direction: 350°N
Pressure: 30.04"   Gusts: 22mph
Location:  42.1166°N, 83.4023°W
Report Text: KDTW 211553Z 35011G19KT 10SM BKN025 OVC035 09/04 A3004 RMK AO2 RAE07 SLP173 P0000 T00890039
Loading
Personal Weather Stations






























Interactive Weather Map
Tropical Storm Tracking
New forecast layout! Learn more

10-Day Weather Forecast

Advertisements
Track Severe Weather on mobile